Time;durP1;ratioP1;P1;durP2;ratioP2;P2;SDS_P1;SDS_P2;PMS_P1;PMS_P2;Temp;Humidity;BMP_temperature;BMP_pressure;BME280_temperature;BME280_humidity;BME280_pressure;Samples;Min_cycle;Max_cycle;Signal;HPM_P1;HPM_P2
2022/01/05 00:00:47;;;;;;;5.60;1.58;;;;;;;;;;6196568;23;20357;-89
2022/01/05 00:03:13;;;;;;;5.88;2.03;;;;;;;;;;6199753;23;20016;-94
2022/01/05 00:05:39;;;;;;;5.10;2.10;;;;;;;;;;6204704;23;20043;-93
2022/01/05 00:08:05;;;;;;;3.33;1.90;;;;;;;;;;6204581;23;20070;-95
2022/01/05 00:10:31;;;;;;;4.95;1.58;;;;;;;;;;6198122;23;20020;-94
2022/01/05 00:12:57;;;;;;;6.57;1.92;;;;;;;;;;6222800;23;20082;-95
2022/01/05 00:15:24;;;;;;;5.15;1.85;;;;;;;;;;6196875;23;20016;-91
2022/01/05 00:17:50;;;;;;;11.68;2.42;;;;;;;;;;6221952;23;20040;-93
2022/01/05 00:20:16;;;;;;;9.88;2.00;;;;;;;;;;6196624;23;20062;-95
2022/01/05 00:22:42;;;;;;;10.95;2.25;;;;;;;;;;6196988;23;20018;-93
2022/01/05 00:25:08;;;;;;;6.97;3.05;;;;;;;;;;6197833;23;20023;-93
2022/01/05 00:27:34;;;;;;;9.13;2.55;;;;;;;;;;6196177;23;20023;-94
2022/01/05 00:30:00;;;;;;;16.58;2.42;;;;;;;;;;6198085;23;20016;-94
2022/01/05 00:32:26;;;;;;;9.95;2.35;;;;;;;;;;6196408;23;20024;-95
2022/01/05 00:34:52;;;;;;;7.18;2.03;;;;;;;;;;6196770;23;20018;-92
2022/01/05 00:37:19;;;;;;;8.48;2.25;;;;;;;;;;6197218;23;20035;-95
2022/01/05 00:39:45;;;;;;;13.40;2.05;;;;;;;;;;6198458;23;20334;-94
2022/01/05 00:42:11;;;;;;;8.00;2.33;;;;;;;;;;6196702;23;20074;-94
2022/01/05 00:44:37;;;;;;;7.45;2.42;;;;;;;;;;6198029;23;20016;-94
2022/01/05 00:47:03;;;;;;;6.68;2.00;;;;;;;;;;6197139;23;20024;-93
2022/01/05 00:49:29;;;;;;;15.63;3.92;;;;;;;;;;6197849;23;20013;-93
2022/01/05 00:51:56;;;;;;;6.45;1.92;;;;;;;;;;6196485;23;20017;-93
2022/01/05 00:54:22;;;;;;;4.88;1.60;;;;;;;;;;6196363;23;20023;-93
2022/01/05 00:56:48;;;;;;;5.63;1.75;;;;;;;;;;6197586;23;20096;-92
2022/01/05 00:59:14;;;;;;;7.32;1.95;;;;;;;;;;6197630;23;20028;-95
2022/01/05 01:01:40;;;;;;;4.47;2.08;;;;;;;;;;6196060;23;20031;-94
2022/01/05 01:04:06;;;;;;;3.08;1.85;;;;;;;;;;6196438;23;20069;-91
2022/01/05 01:06:33;;;;;;;9.40;2.65;;;;;;;;;;6196292;23;20012;-93
2022/01/05 01:08:59;;;;;;;12.55;3.10;;;;;;;;;;6221346;23;20119;-92
2022/01/05 01:11:25;;;;;;;6.22;1.85;;;;;;;;;;6196457;23;20016;-93
2022/01/05 01:13:51;;;;;;;7.10;2.28;;;;;;;;;;6195972;23;20016;-93
2022/01/05 01:16:19;;;;;;;19.35;3.15;;;;;;;;;;6196048;23;20476;-93
2022/01/05 01:18:45;;;;;;;9.73;2.15;;;;;;;;;;6197430;23;20048;-93
2022/01/05 01:21:11;;;;;;;9.35;3.13;;;;;;;;;;6221072;23;20398;-92
2022/01/05 01:23:37;;;;;;;4.75;2.03;;;;;;;;;;6196279;23;20023;-92
2022/01/05 01:26:04;;;;;;;15.88;3.10;;;;;;;;;;6195976;23;20016;-92
2022/01/05 01:28:30;;;;;;;11.75;4.05;;;;;;;;;;6195887;23;20016;-93
2022/01/05 01:30:56;;;;;;;10.68;2.60;;;;;;;;;;6221030;23;20066;-93
2022/01/05 01:33:22;;;;;;;13.02;2.83;;;;;;;;;;6196073;23;20020;-94
2022/01/05 01:35:48;;;;;;;18.58;4.30;;;;;;;;;;6196672;23;20137;-92
2022/01/05 01:38:14;;;;;;;12.48;3.63;;;;;;;;;;6196579;23;20027;-92
2022/01/05 01:40:40;;;;;;;6.00;1.85;;;;;;;;;;6196165;23;20034;-92
2022/01/05 01:43:07;;;;;;;9.48;3.00;;;;;;;;;;6196379;23;20024;-93
2022/01/05 01:45:34;;;;;;;13.73;2.45;;;;;;;;;;6196264;23;20019;-94
2022/01/05 01:48:00;;;;;;;9.10;2.53;;;;;;;;;;6196165;23;20027;-93
2022/01/05 01:50:26;;;;;;;14.27;4.13;;;;;;;;;;6195773;23;20013;-93
2022/01/05 01:52:52;;;;;;;9.40;2.10;;;;;;;;;;6195838;23;20016;-93
2022/01/05 01:55:20;;;;;;;4.97;2.20;;;;;;;;;;6196156;23;20096;-94
2022/01/05 01:57:47;;;;;;;16.25;4.15;;;;;;;;;;6198974;23;20373;-92
2022/01/05 02:00:13;;;;;;;9.77;3.60;;;;;;;;;;6197935;23;20453;-92
2022/01/05 02:02:39;;;;;;;12.07;3.10;;;;;;;;;;6223595;23;20042;-93
2022/01/05 02:05:06;;;;;;;16.52;2.97;;;;;;;;;;6198613;23;20024;-91
2022/01/05 02:07:32;;;;;;;4.75;2.50;;;;;;;;;;6197789;23;20070;-92
2022/01/05 02:09:59;;;;;;;7.63;2.13;;;;;;;;;;6197167;23;20023;-92
2022/01/05 02:12:26;;;;;;;12.27;2.28;;;;;;;;;;6197626;23;20444;-91
2022/01/05 02:14:56;;;;;;;10.93;2.80;;;;;;;;;;6198024;23;20023;-92
2022/01/05 02:17:29;;;;;;;17.38;2.72;;;;;;;;;;6223727;23;20023;-91
2022/01/05 02:19:55;;;;;;;11.25;3.40;;;;;;;;;;6223169;23;20484;-91
2022/01/05 02:22:22;;;;;;;11.70;2.38;;;;;;;;;;6197785;23;20457;-93
2022/01/05 02:24:48;;;;;;;11.63;3.35;;;;;;;;;;6198550;23;20019;-93
2022/01/05 02:27:14;;;;;;;17.00;3.17;;;;;;;;;;6198481;23;20421;-92
2022/01/05 02:29:40;;;;;;;10.68;2.25;;;;;;;;;;6197667;23;20091;-93
2022/01/05 02:32:07;;;;;;;7.28;2.53;;;;;;;;;;6197083;23;20338;-94
2022/01/05 02:34:33;;;;;;;12.63;3.22;;;;;;;;;;6196779;23;20063;-93
2022/01/05 02:36:59;;;;;;;10.40;2.78;;;;;;;;;;6222851;23;20027;-93
2022/01/05 02:39:25;;;;;;;10.57;2.22;;;;;;;;;;6197587;23;20023;-93
2022/01/05 02:41:52;;;;;;;17.80;2.70;;;;;;;;;;6197531;23;20085;-91
2022/01/05 02:44:18;;;;;;;11.07;2.45;;;;;;;;;;6197456;23;20016;-92
2022/01/05 02:46:44;;;;;;;12.68;2.33;;;;;;;;;;6197492;23;20020;-93
2022/01/05 02:49:10;;;;;;;5.68;1.95;;;;;;;;;;6197551;23;20016;-93
2022/01/05 02:51:36;;;;;;;21.45;2.92;;;;;;;;;;6179800;23;20023;-92
2022/01/05 02:54:02;;;;;;;10.35;3.40;;;;;;;;;;6191975;23;20044;-92
2022/01/05 02:56:29;;;;;;;14.40;2.78;;;;;;;;;;6196101;23;20050;-91
2022/01/05 02:58:55;;;;;;;11.07;2.22;;;;;;;;;;6196899;23;20012;-93
2022/01/05 03:01:21;;;;;;;12.93;2.75;;;;;;;;;;6197843;23;20094;-92
2022/01/05 03:03:47;;;;;;;16.23;2.70;;;;;;;;;;6197397;23;20114;-92
2022/01/05 03:06:13;;;;;;;12.15;2.55;;;;;;;;;;6197976;23;20051;-94
2022/01/05 03:08:39;;;;;;;12.60;2.72;;;;;;;;;;6221887;23;20024;-94
2022/01/05 03:11:05;;;;;;;13.27;2.58;;;;;;;;;;6196795;23;20095;-93
2022/01/05 03:13:31;;;;;;;13.00;2.50;;;;;;;;;;6197201;23;20062;-92
2022/01/05 03:15:57;;;;;;;9.88;2.72;;;;;;;;;;6198452;23;20012;-91
2022/01/05 03:18:23;;;;;;;9.57;3.00;;;;;;;;;;6196959;23;20047;-90
2022/01/05 03:20:49;;;;;;;12.70;2.55;;;;;;;;;;6223455;23;20019;-91
2022/01/05 03:23:16;;;;;;;7.50;2.28;;;;;;;;;;6197456;23;20107;-90
2022/01/05 03:25:42;;;;;;;9.88;2.70;;;;;;;;;;6198806;23;20040;-90
2022/01/05 03:28:08;;;;;;;15.77;2.47;;;;;;;;;;6198186;23;20027;-92
2022/01/05 03:30:35;;;;;;;7.18;2.30;;;;;;;;;;6198029;23;20450;-92
2022/01/05 03:35:31;;;;;;;14.65;3.90;;;;;;;;;;6222119;23;20020;-93
2022/01/05 03:37:58;;;;;;;5.88;1.75;;;;;;;;;;6197729;23;20016;-91
2022/01/05 03:40:24;;;;;;;9.55;1.73;;;;;;;;;;6223711;23;20059;-93
2022/01/05 03:42:50;;;;;;;7.78;3.30;;;;;;;;;;6198300;23;20023;-92
2022/01/05 03:45:16;;;;;;;22.67;2.83;;;;;;;;;;6198768;23;20020;-92
2022/01/05 03:47:42;;;;;;;10.27;3.63;;;;;;;;;;6199043;23;20020;-93
2022/01/05 03:50:09;;;;;;;7.05;1.75;;;;;;;;;;6222144;23;20013;-93
2022/01/05 03:52:35;;;;;;;12.82;2.17;;;;;;;;;;6197968;23;20023;-93
2022/01/05 03:55:01;;;;;;;6.60;1.75;;;;;;;;;;6223222;23;20095;-95
2022/01/05 03:57:27;;;;;;;17.25;2.80;;;;;;;;;;6198287;23;20475;-94
2022/01/05 03:59:55;;;;;;;4.40;1.70;;;;;;;;;;6198830;23;20024;-95
2022/01/05 04:02:21;;;;;;;9.23;1.92;;;;;;;;;;6223445;23;20020;-93
2022/01/05 04:04:47;;;;;;;4.45;1.42;;;;;;;;;;6198814;23;20027;-94
2022/01/05 04:07:13;;;;;;;4.82;1.48;;;;;;;;;;6198953;23;20020;-93
2022/01/05 04:09:39;;;;;;;4.97;1.58;;;;;;;;;;6250268;23;20023;-95
2022/01/05 04:12:06;;;;;;;8.52;2.75;;;;;;;;;;6223094;23;20035;-94
2022/01/05 04:14:32;;;;;;;7.82;2.45;;;;;;;;;;6199060;23;20023;-94
2022/01/05 04:16:58;;;;;;;8.40;1.42;;;;;;;;;;6198220;23;20020;-95
2022/01/05 04:19:24;;;;;;;7.20;1.73;;;;;;;;;;6222325;23;20078;-95
2022/01/05 04:21:50;;;;;;;7.10;1.40;;;;;;;;;;6198087;23;20020;-93
2022/01/05 04:24:17;;;;;;;6.57;2.67;;;;;;;;;;6197463;23;20075;-94
2022/01/05 04:26:43;;;;;;;6.15;1.60;;;;;;;;;;6197154;23;20020;-93
2022/01/05 04:29:09;;;;;;;13.15;1.60;;;;;;;;;;6196439;23;20016;-91
2022/01/05 04:31:35;;;;;;;6.30;1.38;;;;;;;;;;6196860;23;20020;-90
2022/01/05 04:34:01;;;;;;;4.82;1.58;;;;;;;;;;6197249;23;20020;-93
2022/01/05 04:36:27;;;;;;;6.95;2.88;;;;;;;;;;6197056;23;20012;-92
2022/01/05 04:38:54;;;;;;;2.92;1.42;;;;;;;;;;6221442;23;20024;-92
2022/01/05 04:41:20;;;;;;;5.68;1.92;;;;;;;;;;6249164;23;20016;-96
2022/01/05 04:43:46;;;;;;;6.43;1.40;;;;;;;;;;6196815;23;20105;-93
2022/01/05 04:46:12;;;;;;;11.02;1.75;;;;;;;;;;6222911;23;20012;-94
2022/01/05 04:48:38;;;;;;;7.97;2.35;;;;;;;;;;6196028;23;20024;-90
2022/01/05 04:51:04;;;;;;;3.05;1.58;;;;;;;;;;6221898;23;20449;-95
2022/01/05 04:53:31;;;;;;;8.77;1.98;;;;;;;;;;6196507;23;20107;-92
2022/01/05 04:55:57;;;;;;;12.38;2.45;;;;;;;;;;6221541;23;20020;-95
2022/01/05 04:58:23;;;;;;;13.65;3.17;;;;;;;;;;6196326;23;20027;-93
2022/01/05 05:00:49;;;;;;;7.75;2.08;;;;;;;;;;6196520;23;20016;-93
2022/01/05 05:03:15;;;;;;;12.15;2.83;;;;;;;;;;6196420;23;20099;-92
2022/01/05 05:05:41;;;;;;;16.90;2.65;;;;;;;;;;6196016;23;20020;-94
2022/01/05 05:08:07;;;;;;;16.73;3.50;;;;;;;;;;6196427;23;20051;-93
2022/01/05 05:10:33;;;;;;;3.90;1.33;;;;;;;;;;6196338;23;20354;-92
2022/01/05 05:12:59;;;;;;;12.65;2.30;;;;;;;;;;6196878;23;20103;-94
2022/01/05 05:15:25;;;;;;;21.50;3.10;;;;;;;;;;6196353;23;20012;-94
2022/01/05 05:17:51;;;;;;;11.15;2.80;;;;;;;;;;6222391;23;20027;-92
2022/01/05 05:20:17;;;;;;;12.35;2.80;;;;;;;;;;6221664;23;20016;-95
2022/01/05 05:22:43;;;;;;;7.97;2.20;;;;;;;;;;6222479;23;20027;-94
2022/01/05 05:25:10;;;;;;;14.25;2.60;;;;;;;;;;6221039;23;20023;-93
2022/01/05 05:27:36;;;;;;;9.85;2.40;;;;;;;;;;6221378;23;20020;-90
2022/01/05 05:30:02;;;;;;;11.43;2.90;;;;;;;;;;6221344;23;20023;-89
2022/01/05 05:32:28;;;;;;;3.35;1.75;;;;;;;;;;6221130;23;20020;-94
2022/01/05 05:34:54;;;;;;;12.07;1.90;;;;;;;;;;6196377;23;20055;-94
2022/01/05 05:37:20;;;;;;;11.98;4.18;;;;;;;;;;6197432;23;20012;-93
2022/01/05 05:39:46;;;;;;;14.10;3.00;;;;;;;;;;6196515;23;20102;-95
2022/01/05 05:42:12;;;;;;;3.30;1.58;;;;;;;;;;6225438;23;20024;-94
2022/01/05 05:44:38;;;;;;;10.63;2.42;;;;;;;;;;6220903;23;20453;-93
2022/01/05 05:47:05;;;;;;;5.55;2.03;;;;;;;;;;6197113;23;20043;-91
2022/01/05 05:49:32;;;;;;;10.55;2.25;;;;;;;;;;6195811;23;20016;-89
2022/01/05 05:51:58;;;;;;;9.57;1.88;;;;;;;;;;6219963;23;20043;-89
2022/01/05 05:54:24;;;;;;;8.85;2.28;;;;;;;;;;6195810;23;20031;-90
2022/01/05 05:56:50;;;;;;;13.07;2.65;;;;;;;;;;6195360;23;20016;-90
2022/01/05 05:59:16;;;;;;;6.13;2.38;;;;;;;;;;6220382;23;20507;-89
2022/01/05 06:01:42;;;;;;;9.55;2.00;;;;;;;;;;6220220;23;20016;-90
2022/01/05 06:04:08;;;;;;;11.07;2.80;;;;;;;;;;6194444;23;20012;-90
2022/01/05 06:06:34;;;;;;;8.60;2.10;;;;;;;;;;6219915;23;20101;-89
2022/01/05 06:09:00;;;;;;;11.05;2.50;;;;;;;;;;6195073;23;20016;-90
2022/01/05 06:11:26;;;;;;;8.43;2.90;;;;;;;;;;6195416;23;20342;-89
2022/01/05 06:13:54;;;;;;;14.45;2.35;;;;;;;;;;6194951;23;20020;-90
2022/01/05 06:16:22;;;;;;;12.45;3.03;;;;;;;;;;6195277;23;20040;-90
2022/01/05 06:18:48;;;;;;;9.98;2.72;;;;;;;;;;6195200;23;20397;-89
2022/01/05 06:21:14;;;;;;;13.20;2.72;;;;;;;;;;6196104;23;20012;-90
2022/01/05 06:23:40;;;;;;;14.05;2.50;;;;;;;;;;6194424;23;20020;-90
2022/01/05 06:26:06;;;;;;;8.88;2.83;;;;;;;;;;6194774;23;20023;-90
2022/01/05 06:28:32;;;;;;;7.95;2.25;;;;;;;;;;6194948;23;20023;-90
2022/01/05 06:30:58;;;;;;;11.88;2.45;;;;;;;;;;6195159;23;20012;-90
2022/01/05 06:33:24;;;;;;;11.02;2.80;;;;;;;;;;6220426;23;20023;-90
2022/01/05 06:35:50;;;;;;;11.57;1.75;;;;;;;;;;6195519;23;20017;-91
2022/01/05 06:38:16;;;;;;;10.73;1.85;;;;;;;;;;6195172;23;20020;-89
2022/01/05 06:40:42;;;;;;;13.02;2.15;;;;;;;;;;6219781;23;20315;-89
2022/01/05 06:43:08;;;;;;;6.45;2.03;;;;;;;;;;6196058;23;20023;-90
2022/01/05 06:45:34;;;;;;;11.10;1.83;;;;;;;;;;6223625;23;20048;-89
2022/01/05 06:48:00;;;;;;;11.48;2.67;;;;;;;;;;6197400;23;20020;-90
2022/01/05 06:50:27;;;;;;;11.20;3.30;;;;;;;;;;6223399;23;20096;-90
2022/01/05 06:52:55;;;;;;;12.10;2.40;;;;;;;;;;6197011;23;20023;-89
2022/01/05 06:55:21;;;;;;;7.70;2.30;;;;;;;;;;6196544;23;20016;-89
2022/01/05 06:57:48;;;;;;;13.98;2.33;;;;;;;;;;6196566;23;20016;-89
2022/01/05 07:00:14;;;;;;;4.68;1.85;;;;;;;;;;6221384;23;20016;-89
2022/01/05 07:02:40;;;;;;;8.43;1.80;;;;;;;;;;6220992;23;20023;-90
2022/01/05 07:05:06;;;;;;;18.65;3.47;;;;;;;;;;6197216;23;20130;-89
2022/01/05 07:07:33;;;;;;;7.93;2.00;;;;;;;;;;6196460;23;20066;-89
2022/01/05 07:09:59;;;;;;;10.55;1.65;;;;;;;;;;6196561;23;20035;-90
2022/01/05 07:12:25;;;;;;;9.02;2.00;;;;;;;;;;6221283;23;20123;-90
2022/01/05 07:14:51;;;;;;;6.05;1.83;;;;;;;;;;6196417;23;20342;-90
2022/01/05 07:17:18;;;;;;;4.30;1.92;;;;;;;;;;6197791;23;20016;-90
2022/01/05 07:19:44;;;;;;;4.28;1.90;;;;;;;;;;6196321;23;20048;-90
2022/01/05 07:22:10;;;;;;;7.35;2.53;;;;;;;;;;6196068;23;20012;-89
2022/01/05 07:24:36;;;;;;;6.93;2.28;;;;;;;;;;6178924;23;20378;-92
2022/01/05 07:27:02;;;;;;;9.05;2.67;;;;;;;;;;6216284;23;20520;-89
2022/01/05 07:29:28;;;;;;;8.05;2.20;;;;;;;;;;6195082;23;20017;-90
2022/01/05 07:31:54;;;;;;;7.97;2.05;;;;;;;;;;6196112;23;20012;-92
2022/01/05 07:34:20;;;;;;;9.77;1.60;;;;;;;;;;6196303;23;20488;-90
2022/01/05 07:36:46;;;;;;;5.15;1.23;;;;;;;;;;6197309;23;20016;-90
2022/01/05 07:39:12;;;;;;;8.32;1.80;;;;;;;;;;6196928;23;20016;-91
2022/01/05 07:41:39;;;;;;;8.40;3.47;;;;;;;;;;6196020;23;20074;-91
2022/01/05 07:44:05;;;;;;;12.55;2.22;;;;;;;;;;6221404;23;20020;-91
2022/01/05 07:46:31;;;;;;;18.35;2.78;;;;;;;;;;6196288;23;20020;-90
2022/01/05 07:48:58;;;;;;;25.83;3.00;;;;;;;;;;6195908;23;20020;-90
2022/01/05 07:51:24;;;;;;;7.97;2.28;;;;;;;;;;6196436;23;20472;-91
2022/01/05 07:53:50;;;;;;;12.65;2.33;;;;;;;;;;6221147;23;20066;-90
2022/01/05 07:56:17;;;;;;;9.05;1.92;;;;;;;;;;6196586;23;20095;-90
2022/01/05 07:58:43;;;;;;;10.88;2.22;;;;;;;;;;6195916;23;20103;-90
2022/01/05 08:01:09;;;;;;;12.02;2.60;;;;;;;;;;6195549;23;20023;-89
2022/01/05 08:03:37;;;;;;;13.13;3.10;;;;;;;;;;6195529;23;20505;-90
2022/01/05 08:06:04;;;;;;;10.40;2.40;;;;;;;;;;6195534;23;20012;-90
2022/01/05 08:08:30;;;;;;;8.57;2.22;;;;;;;;;;6195568;23;20024;-90
2022/01/05 08:10:56;;;;;;;18.52;2.17;;;;;;;;;;6195710;23;20023;-90
2022/01/05 08:13:25;;;;;;;9.20;2.17;;;;;;;;;;6195704;23;20016;-90
2022/01/05 08:15:52;;;;;;;11.95;2.13;;;;;;;;;;6196018;23;20090;-90
2022/01/05 08:18:18;;;;;;;7.60;1.95;;;;;;;;;;6195956;23;20016;-91
2022/01/05 08:20:44;;;;;;;9.55;3.03;;;;;;;;;;6220937;23;20020;-91
2022/01/05 08:23:14;;;;;;;9.65;2.00;;;;;;;;;;6196943;23;20016;-89
2022/01/05 08:25:40;;;;;;;15.43;3.08;;;;;;;;;;6179440;23;20016;-90
2022/01/05 08:28:08;;;;;;;9.10;2.33;;;;;;;;;;6191154;23;20397;-89
2022/01/05 08:30:35;;;;;;;15.73;3.08;;;;;;;;;;6195268;23;20103;-92
2022/01/05 08:33:03;;;;;;;7.90;2.58;;;;;;;;;;6195956;23;20099;-90
2022/01/05 08:35:29;;;;;;;14.57;2.58;;;;;;;;;;6195772;23;20450;-92
2022/01/05 08:37:56;;;;;;;10.05;3.10;;;;;;;;;;6197089;23;20103;-92
2022/01/05 08:40:23;;;;;;;8.90;2.28;;;;;;;;;;6196079;23;20016;-92
2022/01/05 08:42:49;;;;;;;10.52;1.92;;;;;;;;;;6195762;23;20095;-91
2022/01/05 08:45:16;;;;;;;9.05;2.08;;;;;;;;;;6196568;23;20023;-91
2022/01/05 08:47:47;;;;;;;11.23;2.65;;;;;;;;;;6221131;23;20039;-90
2022/01/05 08:50:13;;;;;;;9.88;2.05;;;;;;;;;;6195992;23;20023;-92
2022/01/05 08:52:39;;;;;;;10.20;2.03;;;;;;;;;;6221141;23;20015;-93
2022/01/05 08:55:05;;;;;;;7.38;2.33;;;;;;;;;;6220999;23;20480;-90
2022/01/05 08:57:31;;;;;;;6.25;2.22;;;;;;;;;;6196174;23;20403;-90
2022/01/05 08:59:58;;;;;;;11.35;2.03;;;;;;;;;;6195802;23;20020;-91
2022/01/05 09:02:24;;;;;;;11.40;2.97;;;;;;;;;;6220581;23;20054;-93
2022/01/05 09:04:52;;;;;;;12.02;3.13;;;;;;;;;;6196277;23;20016;-92
2022/01/05 09:07:18;;;;;;;9.00;3.42;;;;;;;;;;6220830;23;20016;-89
2022/01/05 09:09:44;;;;;;;12.80;2.28;;;;;;;;;;6221676;23;20338;-92
2022/01/05 09:12:14;;;;;;;6.72;2.10;;;;;;;;;;6195564;23;20023;-91
2022/01/05 09:14:40;;;;;;;11.30;1.70;;;;;;;;;;6179385;23;20166;-93
2022/01/05 09:17:07;;;;;;;9.70;2.72;;;;;;;;;;6215908;23;20100;-93
2022/01/05 09:19:33;;;;;;;6.90;1.50;;;;;;;;;;6195425;23;20067;-94
2022/01/05 09:21:59;;;;;;;5.93;1.67;;;;;;;;;;6195028;23;20338;-90
2022/01/05 09:24:25;;;;;;;5.82;2.05;;;;;;;;;;6219885;23;20043;-90
2022/01/05 09:26:57;;;;;;;19.55;2.60;;;;;;;;;;6195139;23;20012;-90
2022/01/05 09:29:23;;;;;;;13.70;3.17;;;;;;;;;;6195391;23;20020;-91
2022/01/05 09:31:50;;;;;;;5.25;2.47;;;;;;;;;;6195339;23;20012;-91
2022/01/05 09:34:16;;;;;;;13.23;2.95;;;;;;;;;;6195468;23;20020;-92
2022/01/05 09:36:48;;;;;;;5.13;1.83;;;;;;;;;;6196213;23;20019;-91
2022/01/05 09:42:05;;;;;;;16.88;2.97;;;;;;;;;;6220701;23;20057;-91
2022/01/05 09:44:33;;;;;;;14.77;2.97;;;;;;;;;;6196760;23;20020;-91
2022/01/05 09:47:08;;;;;;;6.97;1.90;;;;;;;;;;6197171;23;20352;-92
2022/01/05 09:49:35;;;;;;;8.80;2.17;;;;;;;;;;6198401;23;20322;-93
2022/01/05 09:52:09;;;;;;;11.45;2.95;;;;;;;;;;6196040;23;20013;-93
2022/01/05 09:54:36;;;;;;;10.00;2.78;;;;;;;;;;6195829;23;20454;-94
2022/01/05 09:57:02;;;;;;;14.85;2.42;;;;;;;;;;6197362;23;20020;-93
2022/01/05 09:59:29;;;;;;;9.20;3.03;;;;;;;;;;6197408;23;20103;-93
2022/01/05 10:01:55;;;;;;;16.05;2.72;;;;;;;;;;6196942;23;20012;-91
2022/01/05 10:04:21;;;;;;;11.85;2.22;;;;;;;;;;6196745;23;20098;-90
2022/01/05 10:06:48;;;;;;;7.85;2.30;;;;;;;;;;6196729;23;20378;-90
2022/01/05 10:09:14;;;;;;;12.65;2.45;;;;;;;;;;6197236;23;20020;-90
2022/01/05 10:11:41;;;;;;;4.88;1.80;;;;;;;;;;6198712;23;20043;-93
2022/01/05 10:14:09;;;;;;;6.72;2.35;;;;;;;;;;6201931;23;20499;-93
2022/01/05 10:16:35;;;;;;;10.80;2.20;;;;;;;;;;6199816;23;20095;-93
2022/01/05 10:19:01;;;;;;;13.75;2.90;;;;;;;;;;6197617;23;20027;-92
2022/01/05 10:21:39;;;;;;;11.23;2.30;;;;;;;;;;6198477;23;20012;-93
2022/01/05 10:24:05;;;;;;;12.80;2.97;;;;;;;;;;6198218;23;20016;-94
2022/01/05 10:26:36;;;;;;;10.48;2.92;;;;;;;;;;6199333;23;20078;-95
2022/01/05 10:29:07;;;;;;;9.63;2.40;;;;;;;;;;6223570;23;20024;-95
2022/01/05 10:31:33;;;;;;;14.48;3.78;;;;;;;;;;6197588;23;20042;-92
2022/01/05 10:33:59;;;;;;;14.65;2.72;;;;;;;;;;6197939;23;20016;-93
2022/01/05 10:36:42;;;;;;;16.55;2.88;;;;;;;;;;6197329;23;20023;-95
2022/01/05 10:39:08;;;;;;;14.65;3.03;;;;;;;;;;6197287;23;20052;-91
2022/01/05 10:41:38;;;;;;;13.93;2.63;;;;;;;;;;6197779;23;20012;-94
2022/01/05 10:44:08;;;;;;;20.00;3.35;;;;;;;;;;6196867;23;20016;-95
2022/01/05 10:46:35;;;;;;;16.98;4.20;;;;;;;;;;6196774;23;20046;-93
2022/01/05 10:49:03;;;;;;;8.48;4.05;;;;;;;;;;6196942;23;20023;-94
2022/01/05 10:51:33;;;;;;;18.48;4.53;;;;;;;;;;6196838;23;20051;-94
2022/01/05 10:54:12;;;;;;;15.70;3.30;;;;;;;;;;6222527;23;20066;-93
2022/01/05 10:56:39;;;;;;;14.45;3.50;;;;;;;;;;6197704;23;20012;-95
2022/01/05 10:59:05;;;;;;;13.02;3.22;;;;;;;;;;6198501;23;20020;-95
2022/01/05 11:01:31;;;;;;;14.82;3.13;;;;;;;;;;6197431;23;20016;-95
2022/01/05 11:03:57;;;;;;;21.40;3.28;;;;;;;;;;6222723;23;20027;-96
2022/01/05 11:06:23;;;;;;;16.60;3.40;;;;;;;;;;6197957;23;20019;-95
2022/01/05 11:09:00;;;;;;;16.65;5.35;;;;;;;;;;6222729;23;20465;-95
2022/01/05 11:11:30;;;;;;;17.00;4.35;;;;;;;;;;6198104;23;20031;-92
2022/01/05 11:13:56;;;;;;;12.13;3.53;;;;;;;;;;6222362;23;20063;-93
2022/01/05 11:16:26;;;;;;;10.93;2.97;;;;;;;;;;6197329;23;20019;-96
2022/01/05 11:19:10;;;;;;;18.00;2.72;;;;;;;;;;6197354;23;20016;-96
2022/01/05 11:21:40;;;;;;;;;;;7.10;99.90;;;;;;6197705;23;20016;-93
2022/01/05 11:24:06;;;;;;;16.80;3.60;;;;;;;;;;6196830;23;19951;-95
2022/01/05 11:26:36;;;;;;;17.25;3.28;;;;;;;;;;6197681;23;20016;-94
2022/01/05 11:29:05;;;;;;;14.20;2.85;;;;;;;;;;6197282;23;20070;-96
2022/01/05 11:31:32;;;;;;;10.85;3.00;;;;;;;;;;6197905;23;20556;-94
2022/01/05 11:33:58;;;;;;;15.15;2.90;;;;;;;;;;6222102;23;20020;-95
2022/01/05 11:36:25;;;;;;;17.23;4.18;;;;;;;;;;6222539;23;20019;-95
2022/01/05 11:38:51;;;;;;;15.90;4.15;;;;;;;;;;6196935;23;20020;-95
2022/01/05 11:41:18;;;;;;;16.35;3.03;;;;;;;;;;6222120;23;20015;-95
2022/01/05 11:43:44;;;;;;;11.68;3.17;;;;;;;;;;6196851;23;20016;-92
2022/01/05 11:46:15;;;;;;;10.43;2.70;;;;;;;;;;6197351;23;20014;-94
2022/01/05 11:48:41;;;;;;;13.63;3.05;;;;;;;;;;6197678;23;20365;-94
2022/01/05 11:51:08;;;;;;;15.85;2.10;;;;;;;;;;6197235;23;20012;-93
2022/01/05 11:53:52;;;;;;;7.88;2.40;;;;;;;;;;6197685;23;20023;-94
2022/01/05 11:56:20;;;;;;;10.70;2.80;;;;;;;;;;6191917;23;20016;-96
2022/01/05 12:02:03;;;;;;;12.27;3.20;;;;;;;;;;6131934;23;20452;-94
2022/01/05 12:04:59;;;;;;;8.38;2.85;;;;;;;;;;6131154;23;20447;-94
2022/01/05 12:07:34;;;;;;;21.23;3.38;;;;;;;;;;6132512;23;20018;-94
2022/01/05 12:10:02;;;;;;;9.35;2.53;;;;;;;;;;6136577;23;20022;-94
2022/01/05 12:12:36;;;;;;;15.35;4.03;;;;;;;;;;6135872;23;20017;-95
2022/01/05 12:40:23;;;;;;;10.48;2.47;;;;;;;;;;6253748;22;20086;-93
2022/01/05 12:43:34;;;;;;;10.48;2.85;;;;;;;;;;6199635;23;20055;-94
2022/01/05 12:46:07;;;;;;;16.13;3.78;;;;;;;;;;6225132;23;20082;-92
2022/01/05 12:48:48;;;;;;;9.57;2.58;;;;;;;;;;6184135;23;20021;-93
2022/01/05 12:51:27;;;;;;;;;;;;;;;;;;;;;
2022/01/05 12:54:08;;;;;;;15.80;4.63;;;;;;;;;;6091076;23;20032;-93
2022/01/05 12:56:53;;;;;;;15.88;4.00;;;;;;;;;;6139688;23;20017;-94
2022/01/05 13:02:45;;;;;;;5.38;2.63;;;;;;;;;;6189437;23;20443;-94
2022/01/05 13:11:04;;;;;;;18.55;4.68;;;;;;;;;;6219777;22;20035;-92
2022/01/05 13:54:05;;;;;;;5.00;2.65;;;;;;;;;;6231654;22;20032;-93
2022/01/05 14:03:58;;;;;;;;;;;;;;;;;;;;;
2022/01/05 14:06:57;;;;;;;14.45;2.50;;;;;;;;;;6040128;23;20056;-96
2022/01/05 14:09:41;;;;;;;20.40;3.13;;;;;;;;;;6027650;23;20027;-91
2022/01/05 14:12:32;;;;;;;12.82;3.45;;;;;;;;;;6003630;23;20019;-95
2022/01/05 14:14:58;;;;;;;23.73;3.75;;;;;;;;;;6031296;23;20071;-94
2022/01/05 14:17:56;;;;;;;12.80;2.70;;;;;;;;;;6013736;23;20066;-92
2022/01/05 14:20:37;;;;;;;11.82;4.20;;;;;;;;;;5921422;24;20024;-92
2022/01/05 14:23:03;;;;;;;21.40;4.35;;;;;;;;;;5936312;24;20021;-95
2022/01/05 14:25:57;;;;;;;17.65;4.13;;;;;;;;;;5964794;23;20079;-93
2022/01/05 14:28:27;;;;;;;20.67;3.20;;;;;;;;;;5940357;24;20021;-92
2022/01/05 14:30:55;;;;;;;18.45;4.03;;;;;;;;;;5914324;23;20073;-90
2022/01/05 14:33:32;;;;;;;21.40;4.40;;;;;;;;;;5937325;24;20024;-95
2022/01/05 14:35:59;;;;;;;11.63;3.20;;;;;;;;;;5916101;24;20024;-93
2022/01/05 14:38:31;;;;;;;19.40;3.65;;;;;;;;;;5953750;23;20020;-90
2022/01/05 14:41:07;;;;;;;22.77;4.32;;;;;;;;;;5992051;23;20024;-92
2022/01/05 14:43:38;;;;;;;12.73;4.50;;;;;;;;;;6017161;23;20016;-91
2022/01/05 14:46:05;;;;;;;20.23;4.20;;;;;;;;;;6036748;23;20120;-95
2022/01/05 14:48:31;;;;;;;26.52;4.38;;;;;;;;;;6223785;23;20016;-93
2022/01/05 14:50:57;;;;;;;13.05;3.80;;;;;;;;;;6201466;23;20342;-92
2022/01/05 14:53:25;;;;;;;19.85;4.00;;;;;;;;;;6200638;23;20043;-95
2022/01/05 14:55:54;;;;;;;23.17;3.80;;;;;;;;;;6200880;23;20400;-95
2022/01/05 14:58:37;;;;;;;17.05;4.55;;;;;;;;;;6205459;23;20027;-96
2022/01/05 15:01:06;;;;;;;15.60;4.03;;;;;;;;;;6201692;23;20095;-92
2022/01/05 15:03:32;;;;;;;16.35;4.25;;;;;;;;;;6255325;23;20026;-95
2022/01/05 15:05:59;;;;;;;24.90;4.95;;;;;;;;;;6208052;23;20020;-96
2022/01/05 15:08:25;;;;;;;15.75;3.78;;;;;;;;;;6229212;23;20066;-96
2022/01/05 15:10:51;;;;;;;13.80;3.00;;;;;;;;;;6203133;23;20012;-91
2022/01/05 15:15:55;;;;;;;9.23;2.25;;;;;;;;;;6280429;22;20030;-89
2022/01/05 15:18:21;;;;;;;14.02;2.58;;;;;;;;;;6231174;22;20031;-91
2022/01/05 15:20:49;;;;;;;11.50;2.03;;;;;;;;;;6228175;22;20019;-93
2022/01/05 15:23:15;;;;;;;9.00;2.28;;;;;;;;;;6232381;22;20391;-95
2022/01/05 15:25:41;;;;;;;11.73;3.20;;;;;;;;;;6234627;22;20080;-96
2022/01/05 15:28:07;;;;;;;12.50;1.90;;;;;;;;;;6235392;22;20016;-94
2022/01/05 15:30:34;;;;;;;13.60;2.58;;;;;;;;;;6256399;22;20357;-94
2022/01/05 15:33:15;;;;;;;12.70;2.67;;;;;;;;;;6229850;22;20094;-91
2022/01/05 15:35:51;;;;;;;12.90;3.80;;;;;;;;;;6230693;22;20023;-92
2022/01/05 15:38:18;;;;;;;19.58;4.28;;;;;;;;;;6229211;22;20015;-94
2022/01/05 15:40:44;;;;;;;14.18;3.40;;;;;;;;;;6231418;22;20015;-94
2022/01/05 15:43:35;;;;;;;19.70;4.43;;;;;;;;;;6231542;22;20059;-93
2022/01/05 15:46:02;;;;;;;26.95;4.53;;;;;;;;;;6233793;22;20026;-92
2022/01/05 15:48:28;;;;;;;18.45;6.05;;;;;;;;;;6227851;22;20020;-94
2022/01/05 15:51:00;;;;;;;26.27;5.35;;;;;;;;;;6232166;22;20054;-95
2022/01/05 15:53:31;;;;;;;17.40;4.68;;;;;;;;;;6233603;22;20070;-96
2022/01/05 15:56:09;;;;;;;19.85;5.13;;;;;;;;;;6234129;22;20018;-94
2022/01/05 16:01:37;;;;;;;19.63;4.75;;;;;;;;;;6253112;22;20023;-95
2022/01/05 16:04:11;;;;;;;16.33;4.15;;;;;;;;;;6227502;22;20012;-95
2022/01/05 16:06:43;;;;;;;;;;;6.30;99.90;;;;;;6228274;22;20097;-93
2022/01/05 16:09:18;;;;;;;15.32;4.32;;;;;;;;;;6231985;22;19961;-96
2022/01/05 16:14:23;;;;;;;16.45;3.08;;;;;;;;;;6252979;22;20108;-94
2022/01/05 16:19:41;;;;;;;16.13;3.28;;;;;;;;;;6272118;22;20086;-95
2022/01/05 16:24:52;;;;;;;12.93;3.22;;;;;;;;;;6246912;22;20076;-95